sensor_id;sensor_type;location;lat;lon;timestamp;temperature;humidity
46117;DHT22;32591;48.102;11.772;2022-12-07T00:00:14;3.40;99.90
46117;DHT22;32591;48.102;11.772;2022-12-07T00:02:41;3.40;99.90
46117;DHT22;32591;48.102;11.772;2022-12-07T00:05:09;3.40;99.90
46117;DHT22;32591;48.102;11.772;2022-12-07T00:07:36;3.40;99.90
46117;DHT22;32591;48.102;11.772;2022-12-07T00:10:03;3.40;99.90
46117;DHT22;32591;48.102;11.772;2022-12-07T00:12:31;3.40;99.90
46117;DHT22;32591;48.102;11.772;2022-12-07T00:14:58;3.30;99.90
46117;DHT22;32591;48.102;11.772;2022-12-07T00:17:25;3.30;99.90
46117;DHT22;32591;48.102;11.772;2022-12-07T00:19:52;3.40;99.90
46117;DHT22;32591;48.102;11.772;2022-12-07T00:22:20;3.30;99.90
46117;DHT22;32591;48.102;11.772;2022-12-07T00:24:47;3.30;99.90
46117;DHT22;32591;48.102;11.772;2022-12-07T00:27:13;3.40;99.90
46117;DHT22;32591;48.102;11.772;2022-12-07T00:29:40;3.40;99.90
46117;DHT22;32591;48.102;11.772;2022-12-07T00:32:07;3.40;99.90
46117;DHT22;32591;48.102;11.772;2022-12-07T00:34:34;3.50;99.90
46117;DHT22;32591;48.102;11.772;2022-12-07T00:37:01;3.50;99.90
46117;DHT22;32591;48.102;11.772;2022-12-07T00:39:29;3.50;99.90
46117;DHT22;32591;48.102;11.772;2022-12-07T00:41:56;3.50;99.90
46117;DHT22;32591;48.102;11.772;2022-12-07T00:44:23;3.50;99.90
46117;DHT22;32591;48.102;11.772;2022-12-07T00:46:50;3.50;99.90
46117;DHT22;32591;48.102;11.772;2022-12-07T00:49:17;3.50;99.90
46117;DHT22;32591;48.102;11.772;2022-12-07T00:51:44;3.60;99.90
46117;DHT22;32591;48.102;11.772;2022-12-07T00:54:11;3.60;99.90
46117;DHT22;32591;48.102;11.772;2022-12-07T00:56:39;3.60;99.90
46117;DHT22;32591;48.102;11.772;2022-12-07T00:59:06;3.60;99.90
46117;DHT22;32591;48.102;11.772;2022-12-07T01:01:34;3.70;99.90
46117;DHT22;32591;48.102;11.772;2022-12-07T01:04:02;3.60;99.90
46117;DHT22;32591;48.102;11.772;2022-12-07T01:06:29;3.60;99.90
46117;DHT22;32591;48.102;11.772;2022-12-07T01:08:57;3.50;99.90
46117;DHT22;32591;48.102;11.772;2022-12-07T01:11:25;3.40;99.90
46117;DHT22;32591;48.102;11.772;2022-12-07T01:13:55;3.40;99.90
46117;DHT22;32591;48.102;11.772;2022-12-07T01:16:23;3.50;99.90
46117;DHT22;32591;48.102;11.772;2022-12-07T01:18:53;3.40;99.90
46117;DHT22;32591;48.102;11.772;2022-12-07T01:21:21;3.40;99.90
46117;DHT22;32591;48.102;11.772;2022-12-07T01:23:49;3.40;99.90
46117;DHT22;32591;48.102;11.772;2022-12-07T01:26:17;3.30;99.90
46117;DHT22;32591;48.102;11.772;2022-12-07T01:28:45;3.40;99.90
46117;DHT22;32591;48.102;11.772;2022-12-07T01:31:14;3.40;99.90
46117;DHT22;32591;48.102;11.772;2022-12-07T01:33:42;3.50;99.90
46117;DHT22;32591;48.102;11.772;2022-12-07T01:36:12;3.60;99.90
46117;DHT22;32591;48.102;11.772;2022-12-07T01:38:41;3.60;99.90
46117;DHT22;32591;48.102;11.772;2022-12-07T01:41:08;3.60;99.90
46117;DHT22;32591;48.102;11.772;2022-12-07T01:43:35;3.60;99.90
46117;DHT22;32591;48.102;11.772;2022-12-07T01:46:02;3.60;99.90
46117;DHT22;32591;48.102;11.772;2022-12-07T01:48:32;3.60;99.90
46117;DHT22;32591;48.102;11.772;2022-12-07T01:51:02;3.60;99.90
46117;DHT22;32591;48.102;11.772;2022-12-07T01:53:31;3.60;99.90
46117;DHT22;32591;48.102;11.772;2022-12-07T01:56:01;3.70;99.90
46117;DHT22;32591;48.102;11.772;2022-12-07T01:58:28;3.70;99.90
46117;DHT22;32591;48.102;11.772;2022-12-07T02:00:55;3.80;99.90
46117;DHT22;32591;48.102;11.772;2022-12-07T02:03:24;3.80;99.90
46117;DHT22;32591;48.102;11.772;2022-12-07T02:05:54;3.70;99.90
46117;DHT22;32591;48.102;11.772;2022-12-07T02:08:21;3.70;99.90
46117;DHT22;32591;48.102;11.772;2022-12-07T02:10:48;3.70;99.90
46117;DHT22;32591;48.102;11.772;2022-12-07T02:13:16;3.70;99.90
46117;DHT22;32591;48.102;11.772;2022-12-07T02:15:49;3.70;99.90
46117;DHT22;32591;48.102;11.772;2022-12-07T02:18:24;3.70;99.90
46117;DHT22;32591;48.102;11.772;2022-12-07T02:20:56;3.70;99.90
46117;DHT22;32591;48.102;11.772;2022-12-07T02:23:40;3.60;99.90
46117;DHT22;32591;48.102;11.772;2022-12-07T02:26:18;3.60;99.90
46117;DHT22;32591;48.102;11.772;2022-12-07T02:29:12;3.60;99.90
46117;DHT22;32591;48.102;11.772;2022-12-07T02:31:43;3.70;99.90
46117;DHT22;32591;48.102;11.772;2022-12-07T02:34:16;3.60;99.90
46117;DHT22;32591;48.102;11.772;2022-12-07T02:36:48;3.60;99.90
46117;DHT22;32591;48.102;11.772;2022-12-07T02:39:19;3.70;99.90
46117;DHT22;32591;48.102;11.772;2022-12-07T02:41:51;3.70;99.90
46117;DHT22;32591;48.102;11.772;2022-12-07T02:44:22;3.70;99.90
46117;DHT22;32591;48.102;11.772;2022-12-07T02:46:51;3.80;99.90
46117;DHT22;32591;48.102;11.772;2022-12-07T02:49:21;3.70;99.90
46117;DHT22;32591;48.102;11.772;2022-12-07T02:51:49;3.70;99.90
46117;DHT22;32591;48.102;11.772;2022-12-07T02:54:17;3.70;99.90
46117;DHT22;32591;48.102;11.772;2022-12-07T02:56:46;3.70;99.90
46117;DHT22;32591;48.102;11.772;2022-12-07T02:59:17;3.70;99.90
46117;DHT22;32591;48.102;11.772;2022-12-07T03:01:53;3.70;99.90
46117;DHT22;32591;48.102;11.772;2022-12-07T03:04:27;3.70;99.90
46117;DHT22;32591;48.102;11.772;2022-12-07T03:07:01;3.70;99.90
46117;DHT22;32591;48.102;11.772;2022-12-07T03:09:32;3.80;99.90
46117;DHT22;32591;48.102;11.772;2022-12-07T03:12:05;3.80;99.90
46117;DHT22;32591;48.102;11.772;2022-12-07T03:14:38;3.80;99.90
46117;DHT22;32591;48.102;11.772;2022-12-07T03:17:09;3.80;99.90
46117;DHT22;32591;48.102;11.772;2022-12-07T03:19:39;3.70;99.90
46117;DHT22;32591;48.102;11.772;2022-12-07T03:22:07;3.70;99.90
46117;DHT22;32591;48.102;11.772;2022-12-07T03:24:36;3.80;99.90
46117;DHT22;32591;48.102;11.772;2022-12-07T03:27:06;3.80;99.90
46117;DHT22;32591;48.102;11.772;2022-12-07T03:29:38;3.70;99.90
46117;DHT22;32591;48.102;11.772;2022-12-07T03:32:09;3.70;99.90
46117;DHT22;32591;48.102;11.772;2022-12-07T03:34:41;3.80;99.90
46117;DHT22;32591;48.102;11.772;2022-12-07T03:37:12;3.80;99.90
46117;DHT22;32591;48.102;11.772;2022-12-07T03:39:44;3.80;99.90
46117;DHT22;32591;48.102;11.772;2022-12-07T03:42:12;3.80;99.90
46117;DHT22;32591;48.102;11.772;2022-12-07T03:44:41;3.80;99.90
46117;DHT22;32591;48.102;11.772;2022-12-07T03:47:10;3.80;99.90
46117;DHT22;32591;48.102;11.772;2022-12-07T03:49:40;3.80;99.90
46117;DHT22;32591;48.102;11.772;2022-12-07T03:52:12;3.80;99.90
46117;DHT22;32591;48.102;11.772;2022-12-07T03:54:45;3.80;99.90
46117;DHT22;32591;48.102;11.772;2022-12-07T03:57:14;3.80;99.90
46117;DHT22;32591;48.102;11.772;2022-12-07T03:59:43;3.80;99.90
46117;DHT22;32591;48.102;11.772;2022-12-07T04:02:11;3.80;99.90
46117;DHT22;32591;48.102;11.772;2022-12-07T04:04:38;3.80;99.90
46117;DHT22;32591;48.102;11.772;2022-12-07T04:07:05;3.80;99.90
46117;DHT22;32591;48.102;11.772;2022-12-07T04:09:32;3.80;99.90
46117;DHT22;32591;48.102;11.772;2022-12-07T04:11:59;3.90;99.90
46117;DHT22;32591;48.102;11.772;2022-12-07T04:14:26;3.80;99.90
46117;DHT22;32591;48.102;11.772;2022-12-07T04:16:55;3.80;99.90
46117;DHT22;32591;48.102;11.772;2022-12-07T04:19:24;3.90;99.90
46117;DHT22;32591;48.102;11.772;2022-12-07T04:21:53;3.80;99.90
46117;DHT22;32591;48.102;11.772;2022-12-07T04:24:20;3.90;99.90
46117;DHT22;32591;48.102;11.772;2022-12-07T04:26:47;3.90;99.90
46117;DHT22;32591;48.102;11.772;2022-12-07T04:29:14;3.80;99.90
46117;DHT22;32591;48.102;11.772;2022-12-07T04:31:42;3.80;99.90
46117;DHT22;32591;48.102;11.772;2022-12-07T04:34:10;3.80;99.90
46117;DHT22;32591;48.102;11.772;2022-12-07T04:36:38;3.80;99.90
46117;DHT22;32591;48.102;11.772;2022-12-07T04:39:05;3.80;99.90
46117;DHT22;32591;48.102;11.772;2022-12-07T04:41:33;3.70;99.90
46117;DHT22;32591;48.102;11.772;2022-12-07T04:44:01;3.70;99.90
46117;DHT22;32591;48.102;11.772;2022-12-07T04:46:32;3.70;99.90
46117;DHT22;32591;48.102;11.772;2022-12-07T04:48:59;3.70;99.90
46117;DHT22;32591;48.102;11.772;2022-12-07T04:51:28;3.70;99.90
46117;DHT22;32591;48.102;11.772;2022-12-07T04:53:55;3.80;99.90
46117;DHT22;32591;48.102;11.772;2022-12-07T04:56:23;3.70;99.90
46117;DHT22;32591;48.102;11.772;2022-12-07T04:58:51;3.70;99.90
46117;DHT22;32591;48.102;11.772;2022-12-07T05:01:19;3.70;99.90
46117;DHT22;32591;48.102;11.772;2022-12-07T05:03:46;3.70;99.90
46117;DHT22;32591;48.102;11.772;2022-12-07T05:06:13;3.80;99.90
46117;DHT22;32591;48.102;11.772;2022-12-07T05:08:42;3.70;99.90
46117;DHT22;32591;48.102;11.772;2022-12-07T05:11:09;3.70;99.90
46117;DHT22;32591;48.102;11.772;2022-12-07T05:13:57;3.70;99.90
46117;DHT22;32591;48.102;11.772;2022-12-07T05:16:24;3.70;99.90
46117;DHT22;32591;48.102;11.772;2022-12-07T05:18:51;3.70;99.90
46117;DHT22;32591;48.102;11.772;2022-12-07T05:21:18;3.70;99.90
46117;DHT22;32591;48.102;11.772;2022-12-07T05:23:47;3.60;99.90
46117;DHT22;32591;48.102;11.772;2022-12-07T05:26:13;3.50;99.90
46117;DHT22;32591;48.102;11.772;2022-12-07T05:28:40;3.40;99.90
46117;DHT22;32591;48.102;11.772;2022-12-07T05:31:07;3.40;99.90
46117;DHT22;32591;48.102;11.772;2022-12-07T05:33:34;3.40;99.90
46117;DHT22;32591;48.102;11.772;2022-12-07T05:36:01;3.40;99.90
46117;DHT22;32591;48.102;11.772;2022-12-07T05:38:31;3.30;99.90
46117;DHT22;32591;48.102;11.772;2022-12-07T05:41:01;3.40;99.90
46117;DHT22;32591;48.102;11.772;2022-12-07T05:43:28;3.40;99.90
46117;DHT22;32591;48.102;11.772;2022-12-07T05:45:54;3.50;99.90
46117;DHT22;32591;48.102;11.772;2022-12-07T05:48:21;3.40;99.90
46117;DHT22;32591;48.102;11.772;2022-12-07T05:50:48;3.50;99.90
46117;DHT22;32591;48.102;11.772;2022-12-07T05:53:15;3.50;99.90
46117;DHT22;32591;48.102;11.772;2022-12-07T05:55:42;3.50;99.90
46117;DHT22;32591;48.102;11.772;2022-12-07T05:58:10;3.50;99.90
46117;DHT22;32591;48.102;11.772;2022-12-07T06:00:55;3.50;99.90
46117;DHT22;32591;48.102;11.772;2022-12-07T06:03:22;3.40;99.90
46117;DHT22;32591;48.102;11.772;2022-12-07T06:05:49;3.40;99.90
46117;DHT22;32591;48.102;11.772;2022-12-07T06:08:16;3.40;99.90
46117;DHT22;32591;48.102;11.772;2022-12-07T06:10:43;3.50;99.90
46117;DHT22;32591;48.102;11.772;2022-12-07T06:13:11;3.40;99.90
46117;DHT22;32591;48.102;11.772;2022-12-07T06:15:37;3.40;99.90
46117;DHT22;32591;48.102;11.772;2022-12-07T06:18:04;3.40;99.90
46117;DHT22;32591;48.102;11.772;2022-12-07T06:20:31;3.40;99.90
46117;DHT22;32591;48.102;11.772;2022-12-07T06:22:58;3.30;99.90
46117;DHT22;32591;48.102;11.772;2022-12-07T06:25:25;3.20;99.90
46117;DHT22;32591;48.102;11.772;2022-12-07T06:27:51;3.10;99.90
46117;DHT22;32591;48.102;11.772;2022-12-07T06:30:22;3.20;99.90
46117;DHT22;32591;48.102;11.772;2022-12-07T06:32:48;3.10;99.90
46117;DHT22;32591;48.102;11.772;2022-12-07T06:35:15;3.10;99.90
46117;DHT22;32591;48.102;11.772;2022-12-07T06:37:42;3.10;99.90
46117;DHT22;32591;48.102;11.772;2022-12-07T06:40:09;3.20;99.90
46117;DHT22;32591;48.102;11.772;2022-12-07T06:42:36;3.10;99.90
46117;DHT22;32591;48.102;11.772;2022-12-07T06:45:03;3.10;99.90
46117;DHT22;32591;48.102;11.772;2022-12-07T06:47:32;3.10;99.90
46117;DHT22;32591;48.102;11.772;2022-12-07T06:49:59;3.10;99.90
46117;DHT22;32591;48.102;11.772;2022-12-07T06:52:25;3.20;99.90
46117;DHT22;32591;48.102;11.772;2022-12-07T06:54:52;3.10;99.90
46117;DHT22;32591;48.102;11.772;2022-12-07T06:57:19;3.20;99.90
46117;DHT22;32591;48.102;11.772;2022-12-07T06:59:46;3.10;99.90
46117;DHT22;32591;48.102;11.772;2022-12-07T07:02:13;3.20;99.90
46117;DHT22;32591;48.102;11.772;2022-12-07T07:04:41;3.20;99.90
46117;DHT22;32591;48.102;11.772;2022-12-07T07:07:08;3.30;99.90
46117;DHT22;32591;48.102;11.772;2022-12-07T07:09:35;4.30;99.90
46117;DHT22;32591;48.102;11.772;2022-12-07T07:12:02;3.40;99.90
46117;DHT22;32591;48.102;11.772;2022-12-07T07:14:29;3.40;99.90
46117;DHT22;32591;48.102;11.772;2022-12-07T07:16:56;3.40;99.90
46117;DHT22;32591;48.102;11.772;2022-12-07T07:19:23;3.40;99.90
46117;DHT22;32591;48.102;11.772;2022-12-07T07:21:51;3.50;99.90
46117;DHT22;32591;48.102;11.772;2022-12-07T07:24:18;3.50;99.90
46117;DHT22;32591;48.102;11.772;2022-12-07T07:26:45;3.50;99.90
46117;DHT22;32591;48.102;11.772;2022-12-07T07:29:12;3.50;99.90
46117;DHT22;32591;48.102;11.772;2022-12-07T07:31:39;3.50;99.90
46117;DHT22;32591;48.102;11.772;2022-12-07T07:34:05;3.50;99.90
46117;DHT22;32591;48.102;11.772;2022-12-07T07:36:34;3.50;99.90
46117;DHT22;32591;48.102;11.772;2022-12-07T07:39:02;3.40;99.90
46117;DHT22;32591;48.102;11.772;2022-12-07T07:41:29;3.50;99.90
46117;DHT22;32591;48.102;11.772;2022-12-07T07:43:56;3.60;99.90
46117;DHT22;32591;48.102;11.772;2022-12-07T07:46:23;3.50;99.90
46117;DHT22;32591;48.102;11.772;2022-12-07T07:48:50;3.40;99.90
46117;DHT22;32591;48.102;11.772;2022-12-07T07:51:17;3.40;99.90
46117;DHT22;32591;48.102;11.772;2022-12-07T07:53:43;3.40;99.90
46117;DHT22;32591;48.102;11.772;2022-12-07T07:56:13;3.40;99.90
46117;DHT22;32591;48.102;11.772;2022-12-07T07:58:39;3.40;99.90
46117;DHT22;32591;48.102;11.772;2022-12-07T08:01:06;3.40;99.90
46117;DHT22;32591;48.102;11.772;2022-12-07T08:03:33;3.50;99.90
46117;DHT22;32591;48.102;11.772;2022-12-07T08:06:01;3.50;99.90
46117;DHT22;32591;48.102;11.772;2022-12-07T08:08:28;3.40;99.90
46117;DHT22;32591;48.102;11.772;2022-12-07T08:10:55;3.30;99.90
46117;DHT22;32591;48.102;11.772;2022-12-07T08:13:23;3.20;99.90
46117;DHT22;32591;48.102;11.772;2022-12-07T08:15:50;3.20;99.90
46117;DHT22;32591;48.102;11.772;2022-12-07T08:18:17;3.10;99.90
46117;DHT22;32591;48.102;11.772;2022-12-07T08:20:43;3.10;99.90
46117;DHT22;32591;48.102;11.772;2022-12-07T08:23:10;3.00;99.90
46117;DHT22;32591;48.102;11.772;2022-12-07T08:25:37;2.90;99.90
46117;DHT22;32591;48.102;11.772;2022-12-07T08:28:05;3.00;99.90
46117;DHT22;32591;48.102;11.772;2022-12-07T08:30:35;2.90;99.90
46117;DHT22;32591;48.102;11.772;2022-12-07T08:33:02;2.90;99.90
46117;DHT22;32591;48.102;11.772;2022-12-07T08:35:29;2.90;99.90
46117;DHT22;32591;48.102;11.772;2022-12-07T08:37:56;2.80;99.90
46117;DHT22;32591;48.102;11.772;2022-12-07T08:40:23;2.80;99.90
46117;DHT22;32591;48.102;11.772;2022-12-07T08:42:50;2.80;99.90
46117;DHT22;32591;48.102;11.772;2022-12-07T08:45:18;2.80;99.90
46117;DHT22;32591;48.102;11.772;2022-12-07T08:47:47;2.90;99.90
46117;DHT22;32591;48.102;11.772;2022-12-07T08:50:16;2.90;99.90
46117;DHT22;32591;48.102;11.772;2022-12-07T08:52:43;3.00;99.90
46117;DHT22;32591;48.102;11.772;2022-12-07T08:55:10;3.00;99.90
46117;DHT22;32591;48.102;11.772;2022-12-07T08:57:37;2.40;99.90
46117;DHT22;32591;48.102;11.772;2022-12-07T09:00:05;3.00;99.90
46117;DHT22;32591;48.102;11.772;2022-12-07T09:02:33;3.20;99.90
46117;DHT22;32591;48.102;11.772;2022-12-07T09:05:01;3.40;99.90
46117;DHT22;32591;48.102;11.772;2022-12-07T09:07:28;3.30;99.90
46117;DHT22;32591;48.102;11.772;2022-12-07T09:09:57;3.20;99.90
46117;DHT22;32591;48.102;11.772;2022-12-07T09:12:23;3.30;99.90
46117;DHT22;32591;48.102;11.772;2022-12-07T09:14:50;3.30;99.90
46117;DHT22;32591;48.102;11.772;2022-12-07T09:17:17;3.40;99.90
46117;DHT22;32591;48.102;11.772;2022-12-07T09:19:44;3.20;99.90
46117;DHT22;32591;48.102;11.772;2022-12-07T09:22:12;3.20;99.90
46117;DHT22;32591;48.102;11.772;2022-12-07T09:24:39;3.20;99.90
46117;DHT22;32591;48.102;11.772;2022-12-07T09:27:06;3.20;99.90
46117;DHT22;32591;48.102;11.772;2022-12-07T09:29:33;3.20;99.90
46117;DHT22;32591;48.102;11.772;2022-12-07T09:32:00;3.20;99.90
46117;DHT22;32591;48.102;11.772;2022-12-07T09:34:27;3.20;99.90
46117;DHT22;32591;48.102;11.772;2022-12-07T09:36:53;3.20;99.90
46117;DHT22;32591;48.102;11.772;2022-12-07T09:39:22;3.20;99.90
46117;DHT22;32591;48.102;11.772;2022-12-07T09:41:49;3.20;99.90
46117;DHT22;32591;48.102;11.772;2022-12-07T09:44:17;3.20;99.90
46117;DHT22;32591;48.102;11.772;2022-12-07T09:46:47;3.30;99.90
46117;DHT22;32591;48.102;11.772;2022-12-07T09:49:16;3.40;99.90
46117;DHT22;32591;48.102;11.772;2022-12-07T09:51:45;3.40;99.90
46117;DHT22;32591;48.102;11.772;2022-12-07T09:54:14;3.50;99.90
46117;DHT22;32591;48.102;11.772;2022-12-07T09:56:43;3.60;99.90
46117;DHT22;32591;48.102;11.772;2022-12-07T09:59:12;3.70;99.90
46117;DHT22;32591;48.102;11.772;2022-12-07T10:01:40;3.80;99.90
46117;DHT22;32591;48.102;11.772;2022-12-07T10:04:09;3.60;99.90
46117;DHT22;32591;48.102;11.772;2022-12-07T10:06:39;3.60;99.90
46117;DHT22;32591;48.102;11.772;2022-12-07T10:09:08;3.60;99.90
46117;DHT22;32591;48.102;11.772;2022-12-07T10:14:25;3.80;99.90
46117;DHT22;32591;48.102;11.772;2022-12-07T10:16:54;3.70;99.90
46117;DHT22;32591;48.102;11.772;2022-12-07T10:19:23;3.80;99.90
46117;DHT22;32591;48.102;11.772;2022-12-07T10:22:00;3.90;99.90
46117;DHT22;32591;48.102;11.772;2022-12-07T10:24:29;4.00;99.90
46117;DHT22;32591;48.102;11.772;2022-12-07T10:26:56;4.00;99.90
46117;DHT22;32591;48.102;11.772;2022-12-07T10:29:28;4.00;99.90
46117;DHT22;32591;48.102;11.772;2022-12-07T10:31:56;4.00;99.90
46117;DHT22;32591;48.102;11.772;2022-12-07T10:34:25;3.90;99.90
46117;DHT22;32591;48.102;11.772;2022-12-07T10:36:55;3.90;99.90
46117;DHT22;32591;48.102;11.772;2022-12-07T10:39:40;3.90;99.90
46117;DHT22;32591;48.102;11.772;2022-12-07T10:42:15;3.90;99.90
46117;DHT22;32591;48.102;11.772;2022-12-07T10:44:42;3.80;99.90
46117;DHT22;32591;48.102;11.772;2022-12-07T10:47:20;3.80;99.90
46117;DHT22;32591;48.102;11.772;2022-12-07T10:50:02;3.80;99.90
46117;DHT22;32591;48.102;11.772;2022-12-07T10:52:57;4.00;99.90
46117;DHT22;32591;48.102;11.772;2022-12-07T10:55:31;4.00;99.90
46117;DHT22;32591;48.102;11.772;2022-12-07T10:58:14;4.10;99.90
46117;DHT22;32591;48.102;11.772;2022-12-07T11:00:50;4.10;99.90
46117;DHT22;32591;48.102;11.772;2022-12-07T11:03:29;4.00;99.90
46117;DHT22;32591;48.102;11.772;2022-12-07T11:06:15;4.10;99.90
46117;DHT22;32591;48.102;11.772;2022-12-07T11:08:52;4.20;99.90
46117;DHT22;32591;48.102;11.772;2022-12-07T11:11:27;4.20;99.90
46117;DHT22;32591;48.102;11.772;2022-12-07T11:14:01;4.30;99.90
46117;DHT22;32591;48.102;11.772;2022-12-07T11:16:34;4.20;99.90
46117;DHT22;32591;48.102;11.772;2022-12-07T11:19:27;4.20;99.90
46117;DHT22;32591;48.102;11.772;2022-12-07T11:22:01;4.10;99.90
46117;DHT22;32591;48.102;11.772;2022-12-07T11:24:32;4.20;99.90
46117;DHT22;32591;48.102;11.772;2022-12-07T11:27:06;4.30;99.90
46117;DHT22;32591;48.102;11.772;2022-12-07T11:32:59;4.10;99.90
46117;DHT22;32591;48.102;11.772;2022-12-07T11:35:34;4.20;99.90
46117;DHT22;32591;48.102;11.772;2022-12-07T11:38:07;4.20;99.90
46117;DHT22;32591;48.102;11.772;2022-12-07T11:40:38;4.20;99.90
46117;DHT22;32591;48.102;11.772;2022-12-07T11:43:09;4.20;99.90
46117;DHT22;32591;48.102;11.772;2022-12-07T11:45:42;4.20;99.90
46117;DHT22;32591;48.102;11.772;2022-12-07T11:48:11;4.10;99.90
46117;DHT22;32591;48.102;11.772;2022-12-07T11:50:42;4.10;99.90
46117;DHT22;32591;48.102;11.772;2022-12-07T11:53:14;4.10;99.90
46117;DHT22;32591;48.102;11.772;2022-12-07T11:55:45;4.20;99.90
46117;DHT22;32591;48.102;11.772;2022-12-07T11:58:29;4.10;99.90
46117;DHT22;32591;48.102;11.772;2022-12-07T12:01:07;4.10;99.90
46117;DHT22;32591;48.102;11.772;2022-12-07T12:03:42;4.00;99.90
46117;DHT22;32591;48.102;11.772;2022-12-07T12:06:10;4.00;99.90
46117;DHT22;32591;48.102;11.772;2022-12-07T12:08:38;4.10;99.90
46117;DHT22;32591;48.102;11.772;2022-12-07T12:11:09;4.20;99.90
46117;DHT22;32591;48.102;11.772;2022-12-07T12:14:02;4.20;99.90
46117;DHT22;32591;48.102;11.772;2022-12-07T12:16:54;4.20;99.90
46117;DHT22;32591;48.102;11.772;2022-12-07T12:21:36;4.50;99.90
46117;DHT22;32591;48.102;11.772;2022-12-07T12:24:09;4.80;99.90
46117;DHT22;32591;48.102;11.772;2022-12-07T12:26:49;4.60;99.90
46117;DHT22;32591;48.102;11.772;2022-12-07T12:29:23;4.50;99.90
46117;DHT22;32591;48.102;11.772;2022-12-07T12:32:07;4.40;99.90
46117;DHT22;32591;48.102;11.772;2022-12-07T12:34:42;4.40;99.90
46117;DHT22;32591;48.102;11.772;2022-12-07T12:37:46;4.40;99.90
46117;DHT22;32591;48.102;11.772;2022-12-07T12:40:39;4.40;99.90
46117;DHT22;32591;48.102;11.772;2022-12-07T12:43:46;4.20;99.90
46117;DHT22;32591;48.102;11.772;2022-12-07T12:46:46;4.10;99.90
46117;DHT22;32591;48.102;11.772;2022-12-07T12:49:42;4.10;99.90
46117;DHT22;32591;48.102;11.772;2022-12-07T12:58:41;4.20;99.90
46117;DHT22;32591;48.102;11.772;2022-12-07T13:01:39;4.20;99.90
46117;DHT22;32591;48.102;11.772;2022-12-07T13:04:37;4.40;99.90
46117;DHT22;32591;48.102;11.772;2022-12-07T13:07:11;4.40;99.90
46117;DHT22;32591;48.102;11.772;2022-12-07T13:09:44;4.40;99.90
46117;DHT22;32591;48.102;11.772;2022-12-07T13:12:14;4.40;99.90
46117;DHT22;32591;48.102;11.772;2022-12-07T13:17:58;4.40;99.90
46117;DHT22;32591;48.102;11.772;2022-12-07T13:20:50;4.40;99.90
46117;DHT22;32591;48.102;11.772;2022-12-07T13:23:20;4.30;99.90
46117;DHT22;32591;48.102;11.772;2022-12-07T13:25:55;4.50;99.90
46117;DHT22;32591;48.102;11.772;2022-12-07T13:28:33;4.30;99.90
46117;DHT22;32591;48.102;11.772;2022-12-07T13:34:01;4.40;99.90
46117;DHT22;32591;48.102;11.772;2022-12-07T13:36:31;4.40;99.90
46117;DHT22;32591;48.102;11.772;2022-12-07T13:39:16;4.40;99.90
46117;DHT22;32591;48.102;11.772;2022-12-07T13:41:50;4.50;99.90
46117;DHT22;32591;48.102;11.772;2022-12-07T13:44:18;4.60;99.90
46117;DHT22;32591;48.102;11.772;2022-12-07T13:46:55;4.70;99.90
46117;DHT22;32591;48.102;11.772;2022-12-07T13:49:28;4.70;99.90
46117;DHT22;32591;48.102;11.772;2022-12-07T13:52:14;4.60;99.90
46117;DHT22;32591;48.102;11.772;2022-12-07T13:54:47;4.60;99.90
46117;DHT22;32591;48.102;11.772;2022-12-07T13:57:16;4.60;99.90
46117;DHT22;32591;48.102;11.772;2022-12-07T13:59:44;4.60;99.90
46117;DHT22;32591;48.102;11.772;2022-12-07T14:02:19;4.60;99.90
46117;DHT22;32591;48.102;11.772;2022-12-07T14:05:05;4.60;99.90
46117;DHT22;32591;48.102;11.772;2022-12-07T14:07:34;4.60;99.90
46117;DHT22;32591;48.102;11.772;2022-12-07T14:10:06;4.60;99.90
46117;DHT22;32591;48.102;11.772;2022-12-07T14:12:51;4.70;99.90
46117;DHT22;32591;48.102;11.772;2022-12-07T14:15:21;4.70;99.90
46117;DHT22;32591;48.102;11.772;2022-12-07T14:17:51;4.80;99.90
46117;DHT22;32591;48.102;11.772;2022-12-07T14:20:29;4.80;99.90
46117;DHT22;32591;48.102;11.772;2022-12-07T14:22:57;4.80;99.90
46117;DHT22;32591;48.102;11.772;2022-12-07T14:25:25;4.60;99.90
46117;DHT22;32591;48.102;11.772;2022-12-07T14:27:56;4.60;99.90
46117;DHT22;32591;48.102;11.772;2022-12-07T14:30:26;4.50;99.90
46117;DHT22;32591;48.102;11.772;2022-12-07T14:32:57;4.50;99.90
46117;DHT22;32591;48.102;11.772;2022-12-07T14:35:26;4.40;99.90
46117;DHT22;32591;48.102;11.772;2022-12-07T14:37:54;4.40;99.90
46117;DHT22;32591;48.102;11.772;2022-12-07T14:40:22;4.50;99.90
46117;DHT22;32591;48.102;11.772;2022-12-07T14:42:57;4.50;99.90
46117;DHT22;32591;48.102;11.772;2022-12-07T14:45:26;4.60;99.90
46117;DHT22;32591;48.102;11.772;2022-12-07T14:47:53;4.60;99.90
46117;DHT22;32591;48.102;11.772;2022-12-07T14:50:21;4.60;99.90
46117;DHT22;32591;48.102;11.772;2022-12-07T14:52:52;4.60;99.90
46117;DHT22;32591;48.102;11.772;2022-12-07T14:55:24;4.60;99.90
46117;DHT22;32591;48.102;11.772;2022-12-07T14:57:52;4.50;99.90
46117;DHT22;32591;48.102;11.772;2022-12-07T15:00:23;4.50;99.90
46117;DHT22;32591;48.102;11.772;2022-12-07T15:02:51;4.50;99.90
46117;DHT22;32591;48.102;11.772;2022-12-07T15:05:19;4.40;99.90
46117;DHT22;32591;48.102;11.772;2022-12-07T15:07:47;4.40;99.90
46117;DHT22;32591;48.102;11.772;2022-12-07T15:10:17;4.40;99.90
46117;DHT22;32591;48.102;11.772;2022-12-07T15:12:45;4.30;99.90
46117;DHT22;32591;48.102;11.772;2022-12-07T15:15:13;4.20;99.90
46117;DHT22;32591;48.102;11.772;2022-12-07T15:17:41;4.20;99.90
46117;DHT22;32591;48.102;11.772;2022-12-07T15:20:12;4.20;99.90
46117;DHT22;32591;48.102;11.772;2022-12-07T15:22:42;4.20;99.90
46117;DHT22;32591;48.102;11.772;2022-12-07T15:25:12;4.10;99.90
46117;DHT22;32591;48.102;11.772;2022-12-07T15:27:40;4.00;99.90
46117;DHT22;32591;48.102;11.772;2022-12-07T15:30:08;4.00;99.90
46117;DHT22;32591;48.102;11.772;2022-12-07T15:32:35;3.90;99.90
46117;DHT22;32591;48.102;11.772;2022-12-07T15:35:04;3.90;99.90
46117;DHT22;32591;48.102;11.772;2022-12-07T15:37:32;3.80;99.90
46117;DHT22;32591;48.102;11.772;2022-12-07T15:39:59;3.70;99.90
46117;DHT22;32591;48.102;11.772;2022-12-07T15:42:26;3.70;99.90
46117;DHT22;32591;48.102;11.772;2022-12-07T15:44:53;3.70;99.90
46117;DHT22;32591;48.102;11.772;2022-12-07T15:47:33;3.60;99.90
46117;DHT22;32591;48.102;11.772;2022-12-07T15:50:01;3.60;99.90
46117;DHT22;32591;48.102;11.772;2022-12-07T15:52:30;3.60;99.90
46117;DHT22;32591;48.102;11.772;2022-12-07T15:54:57;3.50;99.90
46117;DHT22;32591;48.102;11.772;2022-12-07T15:57:25;3.50;99.90
46117;DHT22;32591;48.102;11.772;2022-12-07T15:59:52;3.50;99.90
46117;DHT22;32591;48.102;11.772;2022-12-07T16:02:20;3.40;99.90
46117;DHT22;32591;48.102;11.772;2022-12-07T16:04:48;3.40;99.90
46117;DHT22;32591;48.102;11.772;2022-12-07T16:07:15;3.30;99.90
46117;DHT22;32591;48.102;11.772;2022-12-07T16:09:46;3.30;99.90